Time;durP1;ratioP1;P1;durP2;ratioP2;P2;SDS_P1;SDS_P2;PMS_P1;PMS_P2;Temp;Humidity;BMP_temperature;BMP_pressure;BME280_temperature;BME280_humidity;BME280_pressure;Samples;Min_cycle;Max_cycle;Signal;HPM_P1;HPM_P2
2021/09/21 00:02:18;;;;;;;7.57;3.35;;;;;;;12.13;79.82;102557.81;4901599;29;20028;-52
2021/09/21 00:04:43;;;;;;;7.25;3.28;;;;;;;12.13;79.81;102557.81;4901583;29;20037;-54
2021/09/21 00:07:09;;;;;;;7.07;3.10;;;;;;;12.11;79.83;102559.91;4902720;29;20035;-52
2021/09/21 00:09:34;;;;;;;4.93;2.83;;;;;;;12.11;79.91;102565.28;4905328;29;20056;-53
2021/09/21 00:12:00;;;;;;;5.13;3.13;;;;;;;11.94;81.51;102569.47;4901504;29;20642;-52
2021/09/21 00:14:25;;;;;;;7.38;2.78;;;;;;;11.62;84.11;102558.59;4908785;29;20020;-54
2021/09/21 00:16:51;;;;;;;8.55;3.15;;;;;;;11.50;84.65;102573.72;4902886;29;20028;-52
2021/09/21 00:19:17;;;;;;;4.68;2.80;;;;;;;11.54;84.34;102566.06;4902021;29;20028;-52
2021/09/21 00:21:42;;;;;;;4.70;2.47;;;;;;;11.58;83.97;102568.09;4901636;29;20071;-53
2021/09/21 00:24:08;;;;;;;5.88;3.05;;;;;;;11.70;83.24;102569.13;4903703;29;20067;-52
2021/09/21 00:26:33;;;;;;;5.85;3.00;;;;;;;11.78;82.34;102571.59;4903632;29;20032;-54
2021/09/21 00:29:00;;;;;;;6.35;2.95;;;;;;;11.80;82.20;102579.44;4901459;29;20028;-52
2021/09/21 00:31:36;;;;;;;5.20;2.85;;;;;;;11.83;81.84;102580.88;4899991;29;20440;-53
2021/09/21 00:34:10;;;;;;;5.10;3.20;;;;;;;11.81;82.21;102575.72;4902613;29;20032;-53
2021/09/21 00:36:38;;;;;;;7.78;2.75;;;;;;;11.83;81.84;102584.38;4904639;29;20122;-52
2021/09/21 00:39:05;;;;;;;4.68;2.90;;;;;;;11.69;83.33;102578.22;4904000;29;20028;-52
2021/09/21 00:41:32;;;;;;;5.75;3.10;;;;;;;11.83;82.09;102589.75;4902571;29;20490;-52
2021/09/21 00:43:58;;;;;;;4.63;2.95;;;;;;;11.88;81.62;102586.44;4902162;29;20435;-52
2021/09/21 00:46:23;;;;;;;6.97;2.92;;;;;;;11.89;81.46;102585.41;4903844;29;20272;-53
2021/09/21 00:48:49;;;;;;;3.28;2.60;;;;;;;11.89;81.30;102585.41;4905131;29;20028;-52
2021/09/21 00:51:14;;;;;;;5.05;2.72;;;;;;;11.87;81.55;102590.16;4902042;29;20071;-52
2021/09/21 00:53:40;;;;;;;6.10;2.63;;;;;;;11.86;81.24;102597.41;4901323;29;20107;-52
2021/09/21 00:56:05;;;;;;;5.78;3.45;;;;;;;11.85;81.46;102589.53;4906089;29;20488;-52
2021/09/21 00:58:31;;;;;;;5.90;3.10;;;;;;;11.80;81.96;102591.00;4904989;29;20043;-54
2021/09/21 01:00:56;;;;;;;5.22;3.65;;;;;;;11.82;81.53;102598.03;4902426;29;20815;-54
2021/09/21 01:03:22;;;;;;;4.68;3.17;;;;;;;11.79;81.69;102597.41;4903369;29;20039;-53
2021/09/21 01:05:47;;;;;;;5.20;2.95;;;;;;;11.82;81.55;102587.28;4905768;29;21503;-55
2021/09/21 01:08:13;;;;;;;5.53;3.10;;;;;;;11.82;81.78;102589.97;4903016;29;20036;-53
2021/09/21 01:10:38;;;;;;;7.18;3.42;;;;;;;11.82;81.65;102588.09;4900963;29;20048;-52
2021/09/21 01:13:04;;;;;;;6.55;3.40;;;;;;;11.80;81.77;102588.31;4900117;29;20032;-52
2021/09/21 01:15:29;;;;;;;4.53;3.08;;;;;;;11.79;81.94;102583.16;4900992;29;20024;-53
2021/09/21 01:17:56;;;;;;;4.80;3.08;;;;;;;11.82;81.81;102592.66;4899715;29;20031;-53
2021/09/21 01:20:22;;;;;;;6.20;2.70;;;;;;;11.84;81.82;102596.75;4903793;29;20040;-52
2021/09/21 01:22:48;;;;;;;5.43;3.03;;;;;;;11.86;81.78;102591.22;4903977;29;21458;-55
2021/09/21 01:25:14;;;;;;;6.07;2.92;;;;;;;11.88;81.79;102594.50;4900238;29;20046;-52
2021/09/21 01:27:40;;;;;;;7.00;2.90;;;;;;;11.89;81.73;102593.47;4905464;29;20028;-52
2021/09/21 01:30:08;;;;;;;5.50;3.10;;;;;;;11.90;81.76;102597.81;4905842;29;20024;-53
2021/09/21 01:32:34;;;;;;;5.15;3.50;;;;;;;11.88;81.81;102589.13;4904582;29;20036;-53
2021/09/21 01:35:02;;;;;;;4.75;3.13;;;;;;;11.89;81.93;102596.16;4900405;29;20439;-52
2021/09/21 01:37:28;;;;;;;5.07;2.97;;;;;;;11.91;82.05;102600.28;4902217;29;20024;-54
2021/09/21 01:39:55;;;;;;;5.03;2.97;;;;;;;11.88;81.84;102595.34;4901317;29;20044;-55
2021/09/21 01:42:20;;;;;;;5.22;3.17;;;;;;;11.88;82.00;102599.88;4908123;29;20500;-52
2021/09/21 01:44:46;;;;;;;5.97;2.95;;;;;;;11.86;82.09;102593.91;4904967;29;20506;-55
2021/09/21 01:47:12;;;;;;;7.00;3.28;;;;;;;11.84;82.30;102587.88;4902832;29;21458;-52
2021/09/21 01:49:52;;;;;;;5.68;2.88;;;;;;;11.83;82.24;102587.06;4899776;29;20034;-52
2021/09/21 01:52:21;;;;;;;4.32;2.83;;;;;;;11.79;82.20;102578.59;4899796;29;20383;-54
2021/09/21 02:00:15;;;;;;;4.20;2.53;;;;;;;11.77;82.33;102593.25;4903650;29;20756;-55
2021/09/21 02:02:40;;;;;;;4.72;2.88;;;;;;;11.74;82.23;102594.50;4902229;29;20032;-55
2021/09/21 02:05:06;;;;;;;5.53;3.00;;;;;;;11.68;82.53;102590.00;4899822;29;20727;-52
2021/09/21 02:07:32;;;;;;;4.90;3.10;;;;;;;11.65;82.73;102592.25;4899908;29;20024;-53
2021/09/21 02:09:57;;;;;;;5.63;3.05;;;;;;;11.65;82.62;102595.75;4900692;29;20403;-55
2021/09/21 02:12:23;;;;;;;6.43;2.95;;;;;;;11.62;82.92;102588.13;4899437;29;20064;-54
2021/09/21 02:14:48;;;;;;;5.82;3.10;;;;;;;11.58;82.80;102596.81;4900562;29;20606;-55
2021/09/21 02:17:14;;;;;;;5.25;3.40;;;;;;;11.56;83.04;102602.41;4901025;29;20035;-55
2021/09/21 02:19:40;;;;;;;4.32;2.70;;;;;;;11.51;83.37;102599.53;4899976;29;20028;-53
2021/09/21 02:22:06;;;;;;;5.68;3.10;;;;;;;11.44;84.16;102598.69;4900066;29;20032;-54
2021/09/21 02:24:32;;;;;;;5.97;3.13;;;;;;;11.46;83.73;102591.25;4898889;29;20024;-55
2021/09/21 02:26:57;;;;;;;7.15;2.92;;;;;;;11.44;83.73;102596.00;4900559;29;20043;-55
2021/09/21 02:29:23;;;;;;;4.40;3.00;;;;;;;11.43;83.88;102594.34;4899432;29;20662;-55
2021/09/21 02:31:48;;;;;;;7.57;3.30;;;;;;;11.44;83.74;102587.94;4900512;29;20048;-55
2021/09/21 02:34:14;;;;;;;4.45;3.13;;;;;;;11.41;83.67;102591.06;4899851;29;20044;-55
2021/09/21 02:36:41;;;;;;;7.85;3.67;;;;;;;11.39;83.86;102593.13;4897884;29;20395;-55
2021/09/21 02:39:10;;;;;;;4.40;3.15;;;;;;;11.36;83.88;102597.06;4901195;29;20060;-54
2021/09/21 02:41:36;;;;;;;5.03;3.30;;;;;;;11.36;83.95;102593.56;4902038;29;20036;-56
2021/09/21 02:44:02;;;;;;;5.60;3.25;;;;;;;11.35;83.84;102591.91;4902543;29;20043;-55
2021/09/21 02:46:28;;;;;;;4.47;2.83;;;;;;;11.34;84.24;102595.63;4900888;29;20031;-55
2021/09/21 02:48:53;;;;;;;5.90;3.53;;;;;;;11.33;84.28;102602.03;4899059;29;20394;-52
2021/09/21 02:51:19;;;;;;;5.95;3.22;;;;;;;11.36;84.21;102598.91;4899841;29;20103;-55
2021/09/21 02:53:44;;;;;;;8.90;3.67;;;;;;;11.36;84.03;102601.59;4903569;29;20479;-55
2021/09/21 02:56:12;;;;;;;6.20;3.03;;;;;;;11.39;84.06;102595.81;4900630;29;20115;-55
2021/09/21 02:58:39;;;;;;;5.65;3.30;;;;;;;11.39;83.92;102601.19;4903793;29;20480;-55
2021/09/21 03:01:05;;;;;;;8.77;4.40;;;;;;;11.18;86.19;102600.38;4899593;29;20096;-55
2021/09/21 03:03:33;;;;;;;6.65;3.33;;;;;;;11.26;85.39;102596.63;4898493;29;20034;-55
2021/09/21 03:06:05;;;;;;;8.20;4.05;;;;;;;11.28;85.18;102601.78;4906567;29;20024;-55
2021/09/21 03:08:34;;;;;;;7.55;3.78;;;;;;;11.26;84.93;102593.97;4902970;29;20035;-55
2021/09/21 03:11:13;;;;;;;8.15;4.22;;;;;;;11.24;85.07;102592.53;4899522;29;20387;-55
2021/09/21 03:18:50;;;;;;;6.78;4.18;;;;;;;11.13;85.60;102605.53;4901210;29;20051;-52
2021/09/21 03:21:15;;;;;;;7.82;4.00;;;;;;;11.13;85.49;102608.22;4902068;29;20035;-53
2021/09/21 03:23:41;;;;;;;8.18;3.70;;;;;;;11.10;86.04;102605.09;4900766;29;20361;-54
2021/09/21 03:26:07;;;;;;;7.03;3.90;;;;;;;11.08;85.95;102605.31;4902136;29;20123;-55
2021/09/21 03:28:32;;;;;;;5.43;3.70;;;;;;;11.07;85.77;102609.03;4900382;29;20032;-54
2021/09/21 03:30:58;;;;;;;5.10;3.47;;;;;;;11.05;86.02;102613.78;4900046;29;20017;-54
2021/09/21 03:33:23;;;;;;;7.28;4.28;;;;;;;11.03;85.78;102615.84;4900830;29;20502;-53
2021/09/21 03:35:49;;;;;;;9.35;4.72;;;;;;;11.02;86.40;102608.00;4900544;29;20111;-53
2021/09/21 03:38:14;;;;;;;5.13;3.30;;;;;;;11.04;85.81;102606.75;4901649;29;20123;-55
2021/09/21 03:40:40;;;;;;;4.43;2.83;;;;;;;11.00;85.61;102608.22;4912116;29;20061;-53
2021/09/21 03:43:06;;;;;;;6.20;3.40;;;;;;;10.88;85.76;102597.25;4903409;29;20023;-52
2021/09/21 03:45:31;;;;;;;6.55;3.30;;;;;;;10.83;85.66;102604.28;4904927;29;20034;-54
2021/09/21 03:47:57;;;;;;;8.10;3.47;;;;;;;10.73;85.95;102603.84;4901619;29;20035;-53
2021/09/21 03:50:22;;;;;;;7.75;4.20;;;;;;;10.66;86.24;102606.50;4901190;29;20080;-55
2021/09/21 03:52:48;;;;;;;7.65;4.65;;;;;;;10.59;86.19;102613.69;4904635;29;21373;-54
2021/09/21 03:55:15;;;;;;;7.57;3.65;;;;;;;10.50;86.88;102615.75;4903519;29;20548;-54
2021/09/21 03:57:41;;;;;;;9.15;4.30;;;;;;;10.43;86.82;102614.91;4900191;29;20092;-53
2021/09/21 04:00:07;;;;;;;7.63;3.72;;;;;;;10.35;87.06;102609.72;4908554;29;20088;-52
2021/09/21 04:02:33;;;;;;;5.32;3.08;;;;;;;10.31;87.00;102611.16;4906629;29;20032;-54
2021/09/21 04:04:58;;;;;;;10.48;4.20;;;;;;;10.24;86.79;102613.81;4904859;29;20463;-55
2021/09/21 04:07:24;;;;;;;6.22;4.18;;;;;;;10.18;87.05;102617.25;4902206;29;20275;-55
2021/09/21 04:09:49;;;;;;;7.00;3.80;;;;;;;10.15;87.02;102617.66;4900894;29;20138;-54
2021/09/21 04:12:15;;;;;;;6.15;3.63;;;;;;;10.12;87.37;102622.59;4907865;29;20205;-52
2021/09/21 04:14:40;;;;;;;9.48;4.38;;;;;;;10.08;87.22;102619.47;4904099;29;20035;-54
2021/09/21 04:17:06;;;;;;;7.72;4.07;;;;;;;10.08;87.34;102624.84;4909186;29;20040;-52
2021/09/21 04:19:31;;;;;;;7.20;3.40;;;;;;;10.09;87.27;102625.66;4905897;29;20497;-55
2021/09/21 04:21:57;;;;;;;4.82;3.20;;;;;;;10.08;87.44;102626.69;4906017;29;20028;-52
2021/09/21 04:24:22;;;;;;;5.82;3.60;;;;;;;10.10;87.44;102632.66;4913954;29;20036;-52
2021/09/21 04:26:48;;;;;;;4.85;3.10;;;;;;;10.11;87.43;102626.28;4906886;29;20032;-55
2021/09/21 04:29:13;;;;;;;7.82;3.80;;;;;;;10.10;87.31;102635.34;4898268;29;20110;-53
2021/09/21 04:31:42;;;;;;;7.85;3.60;;;;;;;10.12;87.31;102630.63;4904584;29;20495;-52
2021/09/21 04:34:11;;;;;;;5.25;2.83;;;;;;;10.13;87.08;102640.31;4904130;29;20043;-53
2021/09/21 04:36:37;;;;;;;3.97;2.53;;;;;;;10.10;86.90;102635.34;4906582;29;20092;-52
2021/09/21 04:39:03;;;;;;;3.63;2.33;;;;;;;10.11;86.94;102637.00;4902802;29;20562;-53
2021/09/21 04:41:29;;;;;;;5.15;2.97;;;;;;;10.12;86.69;102636.81;4907468;29;20028;-56
2021/09/21 04:43:54;;;;;;;9.02;3.95;;;;;;;10.11;86.92;102632.47;4907724;29;20506;-55
2021/09/21 04:46:20;;;;;;;6.75;3.70;;;;;;;10.11;87.21;102639.69;4906800;29;20475;-54
2021/09/21 04:48:45;;;;;;;6.57;3.78;;;;;;;10.14;86.94;102642.78;4900743;29;20064;-52
2021/09/21 04:51:11;;;;;;;6.55;4.03;;;;;;;10.17;86.93;102641.56;4910269;29;20032;-52
2021/09/21 04:53:36;;;;;;;6.72;4.45;;;;;;;10.19;87.04;102653.72;4905720;29;20028;-54
2021/09/21 04:56:02;;;;;;;8.70;4.90;;;;;;;10.24;86.67;102642.47;4906754;29;20459;-52
2021/09/21 04:58:27;;;;;;;8.75;4.68;;;;;;;10.22;87.97;102650.66;4901529;29;20032;-53
2021/09/21 05:00:54;;;;;;;9.05;4.95;;;;;;;10.20;88.62;102644.66;4904235;29;20036;-55
2021/09/21 05:03:20;;;;;;;8.18;4.72;;;;;;;10.22;88.58;102650.66;4907242;29;20035;-53
2021/09/21 05:05:45;;;;;;;7.50;4.38;;;;;;;10.20;89.34;102647.34;4908531;29;20037;-51
2021/09/21 05:08:11;;;;;;;8.00;4.28;;;;;;;10.29;88.09;102653.41;4903326;29;20472;-55
2021/09/21 05:10:37;;;;;;;6.85;4.50;;;;;;;10.30;88.54;102649.69;4901339;29;20128;-52
2021/09/21 05:13:02;;;;;;;9.45;4.57;;;;;;;10.33;88.61;102661.84;4902326;29;20035;-53
2021/09/21 05:15:28;;;;;;;7.95;4.65;;;;;;;10.24;89.97;102658.53;4907346;29;20137;-54
2021/09/21 05:17:54;;;;;;;8.82;4.30;;;;;;;10.33;89.46;102668.03;4909930;29;20517;-54
2021/09/21 05:20:19;;;;;;;9.68;5.25;;;;;;;10.32;90.26;102665.56;4920884;29;20257;-52
2021/09/21 05:22:51;;;;;;;6.65;4.75;;;;;;;10.36;89.80;102667.63;4912874;29;20443;-51
2021/09/21 05:25:16;;;;;;;7.63;4.18;;;;;;;10.42;89.77;102666.84;4914841;29;20247;-52
2021/09/21 05:27:42;;;;;;;7.20;4.50;;;;;;;10.50;89.25;102658.63;4904210;29;20500;-53
2021/09/21 05:30:08;;;;;;;8.70;5.00;;;;;;;10.60;88.66;102663.63;4902381;29;20036;-53
2021/09/21 05:32:33;;;;;;;9.15;5.10;;;;;;;10.69;88.19;102670.44;4896855;29;20042;-54
2021/09/21 05:34:59;;;;;;;9.30;5.05;;;;;;;10.62;88.78;102660.75;4897857;29;20025;-53
2021/09/21 05:37:26;;;;;;;8.18;4.78;;;;;;;10.62;89.12;102672.28;4898687;29;20436;-54
2021/09/21 05:39:51;;;;;;;8.05;4.95;;;;;;;10.73;88.47;102668.19;4898303;29;20156;-52
2021/09/21 05:42:17;;;;;;;7.15;4.47;;;;;;;10.75;88.65;102677.66;4895695;29;20110;-53
2021/09/21 05:44:42;;;;;;;8.52;4.85;;;;;;;10.78;88.40;102677.28;4896395;29;20032;-52
2021/09/21 05:47:08;;;;;;;9.73;5.00;;;;;;;10.88;87.86;102680.38;4908636;29;20035;-51
2021/09/21 05:49:34;;;;;;;8.43;5.03;;;;;;;10.90;87.63;102681.00;4900734;29;20119;-54
2021/09/21 05:51:59;;;;;;;7.72;4.82;;;;;;;10.97;87.39;102683.72;4899024;29;20504;-53
2021/09/21 05:54:25;;;;;;;7.20;4.93;;;;;;;11.04;87.17;102681.88;4899392;29;20466;-52
2021/09/21 05:56:50;;;;;;;9.70;4.65;;;;;;;11.09;87.01;102678.56;4895831;29;20040;-52
2021/09/21 05:59:16;;;;;;;9.45;5.20;;;;;;;11.11;87.08;102687.22;4894655;29;20667;-52
2021/09/21 06:01:41;;;;;;;7.72;4.97;;;;;;;11.12;87.11;102692.38;4895107;29;20105;-53
2021/09/21 06:04:08;;;;;;;7.32;5.28;;;;;;;11.16;86.92;102695.50;4896999;29;20028;-53
2021/09/21 06:06:34;;;;;;;11.05;5.18;;;;;;;11.12;87.45;102695.06;4896539;29;20135;-54
2021/09/21 06:08:59;;;;;;;8.27;5.63;;;;;;;11.17;87.19;102698.00;4898393;29;20119;-52
2021/09/21 06:11:31;;;;;;;8.93;5.57;;;;;;;11.29;86.89;102694.69;4897061;29;20143;-53
2021/09/21 06:13:58;;;;;;;10.50;5.40;;;;;;;11.41;86.37;102693.03;4897527;29;20042;-53
2021/09/21 06:16:24;;;;;;;12.50;5.43;;;;;;;11.56;85.47;102699.03;4900067;29;20037;-52
2021/09/21 06:18:50;;;;;;;10.18;5.65;;;;;;;11.69;84.99;102696.34;4903698;29;20033;-52
2021/09/21 06:21:15;;;;;;;8.43;4.95;;;;;;;11.79;84.70;102699.47;4896337;29;20486;-53
2021/09/21 06:23:41;;;;;;;8.55;4.90;;;;;;;11.86;84.41;102693.28;4894838;29;20036;-52
2021/09/21 06:26:06;;;;;;;9.65;5.13;;;;;;;12.03;83.89;102691.78;4896883;29;20662;-52
2021/09/21 06:28:32;;;;;;;10.18;5.18;;;;;;;12.22;83.19;102695.47;4896355;29;20078;-53
2021/09/21 06:30:57;;;;;;;13.07;6.57;;;;;;;12.27;82.63;102707.22;4895988;29;20040;-54
2021/09/21 06:33:24;;;;;;;9.30;5.75;;;;;;;11.96;83.13;102715.97;4907063;29;20075;-52
2021/09/21 06:35:50;;;;;;;8.50;4.60;;;;;;;12.03;84.06;102716.81;4895744;29;20043;-52
2021/09/21 06:38:15;;;;;;;12.60;5.38;;;;;;;12.13;83.74;102716.34;4901067;29;20146;-53
2021/09/21 06:40:41;;;;;;;9.82;5.68;;;;;;;11.90;84.68;102718.69;4897805;29;20495;-54
2021/09/21 06:43:06;;;;;;;7.38;4.85;;;;;;;12.02;84.24;102716.97;4904336;29;20038;-52
2021/09/21 06:45:32;;;;;;;13.43;5.72;;;;;;;12.16;83.54;102721.31;4904919;29;20562;-54
2021/09/21 06:47:58;;;;;;;10.32;5.25;;;;;;;12.26;83.13;102724.38;4895784;29;20032;-52
2021/09/21 06:50:23;;;;;;;11.38;4.93;;;;;;;12.42;82.16;102720.41;4895212;29;20063;-52
2021/09/21 06:52:49;;;;;;;9.85;4.93;;;;;;;12.54;81.55;102712.50;4896641;29;20067;-52
2021/09/21 06:55:15;;;;;;;9.15;5.30;;;;;;;12.67;80.77;102715.94;4896823;29;20036;-52
2021/09/21 06:57:41;;;;;;;11.10;5.15;;;;;;;12.61;81.33;102716.81;4896444;29;20051;-52
2021/09/21 07:00:09;;;;;;;14.77;5.38;;;;;;;12.48;81.46;102710.66;4899015;29;20105;-53
2021/09/21 07:02:35;;;;;;;9.43;5.80;;;;;;;12.56;80.91;102707.72;4910929;29;20401;-53
2021/09/21 07:05:01;;;;;;;7.10;4.60;;;;;;;12.56;80.60;102711.22;4902811;29;20586;-53
2021/09/21 07:07:27;;;;;;;9.55;5.25;;;;;;;12.37;81.23;102710.28;4896056;29;20059;-52
2021/09/21 07:09:52;;;;;;;7.70;4.80;;;;;;;12.33;81.58;102717.13;4895287;29;20041;-53
2021/09/21 07:12:18;;;;;;;11.82;6.22;;;;;;;12.23;82.93;102721.31;4895627;29;20035;-54
2021/09/21 07:14:43;;;;;;;6.82;4.80;;;;;;;12.45;82.11;102717.28;4894914;29;20032;-55
2021/09/21 07:17:09;;;;;;;12.23;5.60;;;;;;;12.58;81.80;102722.63;4894690;29;20033;-55
2021/09/21 07:19:35;;;;;;;15.38;5.20;;;;;;;12.71;80.71;102724.41;4895133;29;20032;-52
2021/09/21 07:22:00;;;;;;;8.15;4.63;;;;;;;12.72;80.61;102723.38;4895310;29;20084;-55
2021/09/21 07:24:27;;;;;;;7.85;5.03;;;;;;;12.84;80.01;102729.75;4903169;29;20020;-53
2021/09/21 07:26:52;;;;;;;6.78;4.50;;;;;;;12.75;79.33;102738.25;4907521;29;20036;-52
2021/09/21 07:29:19;;;;;;;9.10;4.68;;;;;;;12.77;79.51;102731.66;4906689;29;20039;-52
2021/09/21 07:31:44;;;;;;;8.18;4.68;;;;;;;12.99;78.75;102734.84;4911104;29;20035;-54
2021/09/21 07:34:10;;;;;;;7.60;5.60;;;;;;;12.97;77.26;102734.22;4916194;29;20037;-55
2021/09/21 07:36:36;;;;;;;9.90;4.57;;;;;;;13.05;77.85;102727.75;4905414;29;20136;-55
2021/09/21 07:39:03;;;;;;;6.88;4.90;;;;;;;13.19;77.42;102729.38;4898154;29;20056;-52
2021/09/21 07:41:29;;;;;;;8.20;5.63;;;;;;;12.88;76.36;102735.50;4895259;29;20041;-53
2021/09/21 07:43:54;;;;;;;7.30;4.78;;;;;;;12.69;77.50;102735.38;4898390;29;20377;-54
2021/09/21 07:46:20;;;;;;;8.30;5.38;;;;;;;12.74;77.20;102747.38;4898166;29;20028;-52
2021/09/21 07:48:46;;;;;;;8.07;5.05;;;;;;;13.00;77.15;102753.47;4890830;29;20064;-52
2021/09/21 07:51:12;;;;;;;9.88;5.20;;;;;;;13.32;76.63;102755.38;4897897;29;20021;-55
2021/09/21 07:53:37;;;;;;;8.43;5.40;;;;;;;13.45;75.66;102750.69;4896655;29;20445;-52
2021/09/21 07:56:03;;;;;;;8.32;5.85;;;;;;;13.34;74.29;102754.13;4897116;29;20036;-54
2021/09/21 07:58:29;;;;;;;10.35;4.93;;;;;;;13.32;73.31;102745.44;4896796;29;20099;-52
2021/09/21 08:00:55;;;;;;;9.18;5.00;;;;;;;13.63;74.25;102741.03;4896956;29;20480;-52
2021/09/21 08:03:22;;;;;;;8.88;5.15;;;;;;;13.78;72.73;102728.88;4897180;29;20283;-52
2021/09/21 08:05:48;;;;;;;8.88;5.45;;;;;;;13.61;74.22;102743.97;4898432;29;20032;-54
2021/09/21 08:08:16;;;;;;;10.27;5.13;;;;;;;13.12;73.86;102739.31;4896683;29;20028;-53
2021/09/21 08:10:42;;;;;;;8.95;4.88;;;;;;;12.97;75.15;102753.06;4896793;29;20071;-54
2021/09/21 08:13:08;;;;;;;8.73;5.30;;;;;;;13.14;73.57;102748.84;4897969;29;20039;-52
2021/09/21 08:15:33;;;;;;;11.98;5.38;;;;;;;13.66;73.24;102752.22;4897238;29;20024;-52
2021/09/21 08:18:00;;;;;;;7.82;5.25;;;;;;;13.43;71.29;102747.41;4896933;29;20574;-53
2021/09/21 08:20:27;;;;;;;5.88;4.45;;;;;;;13.50;70.32;102739.28;4896752;29;20076;-52
2021/09/21 08:22:53;;;;;;;5.68;4.30;;;;;;;13.61;69.01;102744.78;4897269;29;20115;-53
2021/09/21 08:25:19;;;;;;;7.70;4.70;;;;;;;14.05;68.91;102737.56;4896781;29;20028;-51
2021/09/21 08:27:45;;;;;;;7.45;4.53;;;;;;;14.51;67.99;102747.03;4898373;29;20417;-55
2021/09/21 08:30:11;;;;;;;6.13;4.55;;;;;;;14.40;65.65;102748.59;4901649;29;20049;-52
2021/09/21 08:32:38;;;;;;;9.23;4.75;;;;;;;14.40;66.83;102743.19;4901509;29;20403;-55
2021/09/21 08:35:04;;;;;;;6.03;3.55;;;;;;;14.65;65.42;102735.03;4900766;29;20032;-55
2021/09/21 08:37:29;;;;;;;5.18;3.42;;;;;;;14.71;63.07;102739.50;4899000;29;20411;-55
2021/09/21 08:39:55;;;;;;;6.80;3.40;;;;;;;14.85;62.13;102733.94;4899833;29;20029;-54
2021/09/21 08:42:21;;;;;;;5.63;3.53;;;;;;;15.06;59.97;102736.13;4901156;29;20020;-53
2021/09/21 08:44:47;;;;;;;7.50;4.07;;;;;;;15.50;60.91;102731.34;4898669;29;20037;-55
2021/09/21 08:47:13;;;;;;;6.57;4.25;;;;;;;15.05;60.68;102731.78;4900253;29;20060;-52
2021/09/21 08:49:39;;;;;;;5.75;3.80;;;;;;;15.08;61.40;102734.03;4902580;29;20035;-55
2021/09/21 08:52:05;;;;;;;8.50;4.15;;;;;;;15.25;61.06;102728.81;4900658;29;20115;-51
2021/09/21 08:54:30;;;;;;;8.02;4.15;;;;;;;15.37;60.49;102743.16;4899661;29;20107;-53
2021/09/21 08:56:58;;;;;;;7.35;4.13;;;;;;;15.67;60.71;102741.25;4900579;29;21535;-56
2021/09/21 08:59:35;;;;;;;6.47;4.00;;;;;;;15.84;58.97;102744.09;4911708;29;20237;-53
2021/09/21 09:02:09;;;;;;;7.20;3.70;;;;;;;15.40;57.50;102748.09;4899924;29;20224;-52
2021/09/21 09:04:35;;;;;;;6.57;4.30;;;;;;;15.29;59.43;102738.94;4899079;29;20058;-52
2021/09/21 09:07:02;;;;;;;5.25;3.63;;;;;;;15.30;58.81;102748.69;4898890;29;20489;-52
2021/09/21 09:09:32;;;;;;;7.63;4.13;;;;;;;15.13;59.18;102747.69;4898764;29;20084;-54
2021/09/21 09:12:02;;;;;;;5.00;3.60;;;;;;;15.62;59.65;102738.44;4898584;29;20032;-55
2021/09/21 09:14:34;;;;;;;7.70;3.88;;;;;;;15.31;60.12;102733.28;4899546;29;20103;-53
2021/09/21 09:17:02;;;;;;;6.53;4.03;;;;;;;15.40;59.73;102735.41;4898097;29;20185;-53
2021/09/21 09:19:50;;;;;;;8.65;4.10;;;;;;;15.10;59.27;102734.66;4901955;29;20534;-51
2021/09/21 09:22:27;;;;;;;7.47;3.75;;;;;;;14.51;60.38;102730.84;4899595;29;20032;-52
2021/09/21 09:25:12;;;;;;;6.38;3.80;;;;;;;14.72;60.67;102738.50;4899169;29;20035;-52
2021/09/21 09:27:40;;;;;;;6.82;4.00;;;;;;;15.06;59.92;102738.84;4901250;29;20115;-54
2021/09/21 09:30:12;;;;;;;8.20;4.25;;;;;;;14.99;59.03;102730.03;4898459;29;20040;-52
2021/09/21 09:32:48;;;;;;;9.90;4.70;;;;;;;14.84;59.16;102726.91;4902062;29;20037;-52
2021/09/21 09:35:28;;;;;;;6.57;4.18;;;;;;;14.73;60.09;102725.81;4899653;29;20495;-56
2021/09/21 09:37:59;;;;;;;6.78;3.72;;;;;;;14.38;61.22;102722.91;4897438;29;20483;-54
2021/09/21 09:40:26;;;;;;;7.35;3.78;;;;;;;14.88;60.97;102712.72;4899873;29;20092;-55
2021/09/21 09:42:51;;;;;;;7.05;3.40;;;;;;;15.28;59.98;102712.97;4898099;29;20052;-52
2021/09/21 09:45:31;;;;;;;5.53;3.60;;;;;;;15.54;58.63;102710.91;4902088;29;20063;-53
2021/09/21 09:47:58;;;;;;;6.00;3.78;;;;;;;15.95;58.28;102715.41;4898239;29;20031;-54
2021/09/21 09:50:27;;;;;;;5.35;3.63;;;;;;;15.66;56.04;102714.47;4902465;29;20261;-55
2021/09/21 09:53:13;;;;;;;5.13;3.30;;;;;;;15.49;56.67;102711.59;4898482;29;20070;-52
2021/09/21 09:55:40;;;;;;;4.32;3.13;;;;;;;15.54;57.21;102710.91;4902857;29;20499;-54
2021/09/21 09:58:07;;;;;;;5.95;3.50;;;;;;;15.33;56.23;102710.41;4898391;29;20034;-53
2021/09/21 10:00:35;;;;;;;6.40;3.10;;;;;;;15.49;55.12;102724.28;4897038;29;20410;-52
2021/09/21 10:03:02;;;;;;;6.05;3.47;;;;;;;15.64;55.42;102716.59;4899437;29;20063;-53
2021/09/21 10:05:33;;;;;;;4.68;3.67;;;;;;;15.77;55.43;102707.41;4898770;29;20029;-51
2021/09/21 10:07:59;;;;;;;7.93;3.63;;;;;;;15.81;55.73;102711.31;4898644;29;20032;-56
2021/09/21 10:10:28;;;;;;;4.25;3.45;;;;;;;15.99;54.52;102714.72;4898895;29;20403;-52
2021/09/21 10:12:58;;;;;;;7.18;3.60;;;;;;;15.21;54.04;102717.66;4899468;29;20035;-53
2021/09/21 10:15:25;;;;;;;4.72;3.38;;;;;;;15.58;54.44;102717.47;4899845;29;20070;-51
2021/09/21 10:17:54;;;;;;;6.35;3.17;;;;;;;15.91;53.94;102714.22;4897448;29;20040;-52
2021/09/21 10:20:39;;;;;;;3.75;3.22;;;;;;;16.06;53.24;102719.97;4900827;29;20122;-52
2021/09/21 10:23:07;;;;;;;5.93;3.50;;;;;;;16.11;51.92;102720.09;4898467;29;20036;-52
2021/09/21 10:25:35;;;;;;;5.00;3.38;;;;;;;15.84;52.60;102717.06;4897390;29;20039;-52
2021/09/21 10:28:10;;;;;;;7.07;3.38;;;;;;;15.70;53.23;102721.88;4912074;29;20092;-54
2021/09/21 10:30:36;;;;;;;6.10;3.80;;;;;;;16.25;52.44;102724.19;4900136;29;20021;-53
2021/09/21 10:33:01;;;;;;;6.50;3.25;;;;;;;15.97;51.85;102733.03;4897922;29;20043;-55
2021/09/21 10:35:30;;;;;;;5.43;4.35;;;;;;;15.69;51.54;102724.81;4903975;29;20145;-52
2021/09/21 10:38:02;;;;;;;7.28;3.50;;;;;;;15.84;51.80;102741.38;4903781;29;20487;-51
2021/09/21 10:40:50;;;;;;;5.18;3.08;;;;;;;15.84;50.73;102735.97;4898548;29;20456;-55
2021/09/21 10:43:27;;;;;;;4.90;3.53;;;;;;;15.64;50.38;102747.13;4897561;29;20108;-52
2021/09/21 10:46:09;;;;;;;4.20;2.88;;;;;;;15.92;49.78;102745.59;4897407;29;20507;-56
2021/09/21 10:48:36;;;;;;;4.60;3.15;;;;;;;15.94;49.28;102754.31;4907795;29;20036;-53
2021/09/21 10:51:03;;;;;;;4.70;3.30;;;;;;;15.94;50.03;102755.13;4897907;29;20043;-53
2021/09/21 10:53:29;;;;;;;6.22;3.30;;;;;;;15.67;50.39;102753.94;4898788;29;20036;-55
2021/09/21 10:56:16;;;;;;;4.35;3.17;;;;;;;15.59;50.77;102752.38;4896878;29;20272;-54
2021/09/21 10:58:55;;;;;;;5.38;3.05;;;;;;;15.66;49.78;102742.31;4897802;29;20496;-54
2021/09/21 11:01:21;;;;;;;7.55;2.90;;;;;;;16.14;49.75;102738.53;4896411;29;20040;-52
2021/09/21 11:03:47;;;;;;;4.75;2.60;;;;;;;16.44;48.44;102738.38;4896328;29;20407;-52
2021/09/21 11:06:14;;;;;;;4.78;2.60;;;;;;;16.91;47.84;102746.38;4896267;29;20025;-52
2021/09/21 11:08:41;;;;;;;4.30;3.08;;;;;;;16.45;47.13;102753.53;4896455;29;20102;-52
2021/09/21 11:11:08;;;;;;;3.53;2.65;;;;;;;16.11;47.73;102754.41;4898139;29;20056;-52
2021/09/21 11:13:41;;;;;;;4.20;2.97;;;;;;;15.66;48.56;102747.72;4906592;29;20031;-52
2021/09/21 11:16:09;;;;;;;4.38;3.00;;;;;;;15.81;49.31;102739.16;4903201;29;20101;-55
2021/09/21 11:18:36;;;;;;;5.60;2.67;;;;;;;16.23;48.04;102734.41;4898174;29;20158;-52
2021/09/21 11:21:08;;;;;;;6.90;2.78;;;;;;;15.84;48.17;102738.69;4896568;29;20114;-52
2021/09/21 11:23:37;;;;;;;3.88;2.67;;;;;;;15.97;48.29;102724.09;4899297;29;20118;-55
2021/09/21 11:26:06;;;;;;;4.10;2.92;;;;;;;16.58;48.18;102738.94;4906045;29;20035;-54
2021/09/21 11:28:35;;;;;;;3.55;3.13;;;;;;;16.41;47.72;102741.56;4904364;29;20451;-52
2021/09/21 11:31:02;;;;;;;4.47;2.58;;;;;;;16.53;48.67;102722.59;4903992;29;20112;-55
2021/09/21 11:33:39;;;;;;;3.00;2.38;;;;;;;16.68;47.67;102719.38;4897372;29;20043;-54
2021/09/21 11:36:07;;;;;;;4.57;2.85;;;;;;;16.45;47.41;102726.50;4897019;29;20511;-54